createdAt,value
2018-01-18T00:01:42.169Z,2.50
2018-01-18T00:04:08.800Z,2.47
2018-01-18T00:06:35.488Z,4.67
2018-01-18T00:09:02.088Z,3.60
2018-01-18T00:11:28.681Z,5.10
2018-01-18T00:13:55.336Z,4.27
2018-01-18T00:16:21.938Z,4.40
2018-01-18T00:18:48.543Z,5.40
2018-01-18T00:21:15.245Z,3.40
2018-01-18T00:23:42.596Z,3.30
2018-01-18T00:26:09.960Z,7.70
2018-01-18T00:28:37.327Z,4.20
2018-01-18T00:31:03.905Z,3.80
2018-01-18T00:33:30.573Z,3.93
2018-01-18T00:35:57.128Z,3.63
2018-01-18T00:38:23.767Z,5.10
2018-01-18T00:40:50.415Z,3.93
2018-01-18T00:43:16.981Z,3.53
2018-01-18T00:45:43.565Z,4.47
2018-01-18T00:48:10.146Z,5.23
2018-01-18T00:50:36.727Z,7.80
2018-01-18T00:53:03.292Z,4.07
2018-01-18T00:55:29.884Z,4.13
2018-01-18T00:57:57.220Z,5.37
2018-01-18T01:00:23.869Z,2.83
2018-01-18T01:02:50.483Z,2.83
2018-01-18T01:05:17.048Z,3.10
2018-01-18T01:07:43.743Z,4.40
2018-01-18T01:10:10.387Z,3.30
2018-01-18T01:12:37.056Z,3.33
2018-01-18T01:15:03.680Z,4.77
2018-01-18T01:17:30.307Z,5.43
2018-01-18T01:19:56.967Z,4.00
2018-01-18T01:22:23.660Z,2.50
2018-01-18T01:24:50.309Z,4.23
2018-01-18T01:27:16.957Z,4.33
2018-01-18T01:29:44.285Z,2.67
2018-01-18T01:32:10.900Z,2.30
2018-01-18T01:34:37.484Z,4.33
2018-01-18T01:37:04.063Z,2.90
2018-01-18T01:39:30.669Z,4.30
2018-01-18T01:41:57.236Z,2.37
2018-01-18T01:44:24.750Z,2.57
2018-01-18T01:46:51.324Z,2.23
2018-01-18T01:49:18.627Z,3.60
2018-01-18T01:51:45.188Z,3.60
2018-01-18T01:54:11.795Z,2.90
2018-01-18T01:56:38.425Z,2.83
2018-01-18T01:59:05.750Z,3.60
2018-01-18T02:01:32.346Z,3.50
2018-01-18T02:03:58.930Z,3.27
2018-01-18T02:06:25.523Z,3.40
2018-01-18T02:08:52.181Z,3.53
2018-01-18T02:11:18.784Z,4.63
2018-01-18T02:13:45.377Z,5.40
2018-01-18T02:16:11.943Z,3.47
2018-01-18T02:18:38.547Z,3.60
2018-01-18T02:21:05.158Z,2.93
2018-01-18T02:23:32.566Z,4.40
2018-01-18T02:25:59.140Z,2.47
2018-01-18T02:28:25.724Z,3.30
2018-01-18T02:30:52.296Z,2.10
2018-01-18T02:33:18.872Z,2.83
2018-01-18T02:35:45.497Z,2.10
2018-01-18T02:38:12.077Z,2.23
2018-01-18T02:40:39.402Z,1.67
2018-01-18T02:43:06.156Z,4.07
2018-01-18T02:45:32.785Z,2.80
2018-01-18T02:47:59.409Z,2.80
2018-01-18T02:50:25.997Z,3.10
2018-01-18T02:52:52.643Z,2.77
2018-01-18T02:55:19.215Z,2.50
2018-01-18T02:57:45.786Z,3.80
2018-01-18T03:00:12.644Z,2.90
2018-01-18T03:02:39.256Z,3.70
2018-01-18T03:05:05.879Z,3.30
2018-01-18T03:07:32.444Z,1.40
2018-01-18T03:09:59.161Z,2.80
2018-01-18T03:12:26.609Z,2.23
2018-01-18T03:14:53.977Z,2.93
2018-01-18T03:17:21.383Z,2.17
2018-01-18T03:19:47.955Z,2.90
2018-01-18T03:22:14.505Z,2.27
2018-01-18T03:24:41.071Z,1.83
2018-01-18T03:27:08.413Z,1.80
2018-01-18T03:29:35.020Z,2.80
2018-01-18T03:32:01.567Z,2.30
2018-01-18T03:34:28.159Z,2.13
2018-01-18T03:36:54.729Z,1.97
2018-01-18T03:39:21.288Z,1.77
2018-01-18T03:41:47.873Z,4.30
2018-01-18T03:44:16.319Z,1.93
2018-01-18T03:46:43.069Z,1.50
2018-01-18T03:49:10.324Z,1.70
2018-01-18T03:51:37.006Z,1.40
2018-01-18T03:54:04.419Z,1.40
2018-01-18T03:56:31.008Z,1.33
2018-01-18T03:58:58.368Z,2.77
2018-01-18T04:01:25.724Z,2.00
2018-01-18T04:03:52.778Z,3.23
2018-01-18T04:06:19.797Z,1.20
2018-01-18T04:08:46.122Z,1.97
2018-01-18T04:11:12.619Z,1.40
2018-01-18T04:13:39.228Z,1.63
2018-01-18T04:16:05.878Z,1.83
2018-01-18T04:18:32.528Z,1.37
2018-01-18T04:20:59.088Z,1.70
2018-01-18T04:23:26.413Z,1.93
2018-01-18T04:25:53.069Z,1.40
2018-01-18T04:28:19.736Z,1.97
2018-01-18T04:30:46.328Z,2.03
2018-01-18T04:33:12.867Z,1.80
2018-01-18T04:35:39.441Z,1.00
2018-01-18T04:38:05.986Z,1.53
2018-01-18T04:40:33.388Z,1.20
2018-01-18T04:42:59.967Z,1.40
2018-01-18T04:45:26.534Z,1.27
2018-01-18T04:47:53.900Z,0.97
2018-01-18T04:50:20.966Z,1.20
2018-01-18T04:52:47.607Z,1.43
2018-01-18T04:55:14.174Z,1.83
2018-01-18T04:57:40.826Z,1.40
2018-01-18T05:00:07.499Z,1.63
2018-01-18T05:02:34.223Z,1.93
2018-01-18T05:05:00.799Z,0.83
2018-01-18T05:07:27.376Z,2.00
2018-01-18T05:09:54.360Z,1.00
2018-01-18T05:12:21.129Z,1.63
2018-01-18T05:14:47.812Z,0.80
2018-01-18T05:17:14.373Z,2.10
2018-01-18T05:19:40.945Z,1.03
2018-01-18T05:22:07.505Z,0.80
2018-01-18T05:24:34.079Z,1.00
2018-01-18T05:27:00.656Z,0.90
2018-01-18T05:29:27.231Z,1.67
2018-01-18T05:31:53.808Z,0.80
2018-01-18T05:34:21.624Z,1.77
2018-01-18T05:36:48.304Z,1.20
2018-01-18T05:39:15.473Z,2.70
2018-01-18T05:41:41.989Z,1.70
2018-01-18T05:44:09.049Z,1.00
2018-01-18T05:46:36.076Z,0.90
2018-01-18T05:49:02.440Z,1.00
2018-01-18T05:51:29.662Z,1.83
2018-01-18T05:53:56.390Z,1.87
2018-01-18T05:56:23.148Z,1.00
2018-01-18T05:58:49.877Z,4.20
2018-01-18T06:01:16.742Z,1.40
2018-01-18T06:03:43.284Z,1.13
2018-01-18T06:06:09.916Z,1.30
2018-01-18T06:08:36.591Z,1.33
2018-01-18T06:11:03.205Z,1.43
2018-01-18T06:13:29.840Z,1.20
2018-01-18T06:15:56.484Z,1.00
2018-01-18T06:18:23.104Z,1.63
2018-01-18T06:20:49.686Z,1.03
2018-01-18T06:23:16.266Z,2.20
2018-01-18T06:25:43.444Z,1.87
2018-01-18T06:28:10.081Z,1.50
2018-01-18T06:30:36.725Z,2.30
2018-01-18T06:33:03.293Z,1.97
2018-01-18T06:35:29.841Z,4.13
2018-01-18T06:37:56.505Z,3.13
2018-01-18T06:40:23.101Z,3.17
2018-01-18T06:42:49.974Z,1.60
2018-01-18T06:45:16.829Z,3.93
2018-01-18T06:47:43.464Z,2.97
2018-01-18T06:50:10.246Z,2.60
2018-01-18T06:52:36.988Z,2.50
2018-01-18T06:55:03.926Z,2.77
2018-01-18T06:57:30.539Z,2.47
2018-01-18T06:59:57.272Z,2.53
2018-01-18T07:02:23.870Z,3.70
2018-01-18T07:04:50.476Z,3.63
2018-01-18T07:07:17.270Z,3.87
2018-01-18T07:09:44.572Z,2.00
2018-01-18T07:12:11.148Z,4.20
2018-01-18T07:14:37.692Z,4.73
2018-01-18T07:17:04.417Z,4.50
2018-01-18T07:19:30.992Z,1.90
2018-01-18T07:21:57.962Z,3.33
2018-01-18T07:24:24.747Z,3.93
2018-01-18T07:26:51.327Z,3.97
2018-01-18T07:29:18.145Z,4.43
2018-01-18T07:31:44.908Z,6.87
2018-01-18T07:34:11.667Z,4.63
2018-01-18T07:36:38.393Z,5.83
2018-01-18T07:39:05.241Z,4.87
2018-01-18T07:41:32.044Z,6.00
2018-01-18T07:43:58.842Z,5.53
2018-01-18T07:46:25.491Z,5.80
2018-01-18T07:48:52.081Z,6.70
2018-01-18T07:51:18.676Z,6.40
2018-01-18T07:53:45.326Z,10.70
2018-01-18T07:56:11.899Z,8.00
2018-01-18T07:58:39.413Z,9.00
2018-01-18T08:01:06.068Z,11.53
2018-01-18T08:03:39.396Z,13.80
2018-01-18T08:06:05.980Z,10.30
2018-01-18T08:08:32.729Z,5.73
2018-01-18T08:10:59.381Z,7.73
2018-01-18T08:13:26.127Z,8.30
2018-01-18T08:15:52.874Z,12.57
2018-01-18T08:18:19.512Z,7.77
2018-01-18T08:20:46.289Z,6.00
2018-01-18T08:23:13.731Z,7.90
2018-01-18T08:25:40.360Z,6.47
2018-01-18T08:28:07.103Z,6.70
2018-01-18T08:30:33.853Z,3.77
2018-01-18T08:33:00.477Z,7.67
2018-01-18T08:35:27.066Z,6.80
2018-01-18T08:37:53.732Z,5.53
2018-01-18T08:40:20.305Z,5.93
2018-01-18T08:42:46.891Z,6.00
2018-01-18T08:45:14.288Z,5.40
2018-01-18T08:47:40.940Z,4.80
2018-01-18T08:50:07.718Z,15.80
2018-01-18T08:52:34.468Z,4.07
2018-01-18T08:55:01.092Z,6.87
2018-01-18T08:57:27.781Z,7.90
2018-01-18T09:02:14.703Z,5.97
2018-01-18T09:04:41.361Z,8.60
2018-01-18T09:07:07.939Z,4.53
2018-01-18T09:09:34.516Z,3.87
2018-01-18T09:12:01.277Z,7.67
2018-01-18T09:14:27.873Z,4.80
2018-01-18T09:16:54.456Z,5.03
2018-01-18T09:19:21.064Z,6.17
2018-01-18T09:21:47.684Z,6.00
2018-01-18T09:24:14.262Z,6.73
2018-01-18T09:26:40.973Z,3.00
2018-01-18T09:29:07.572Z,6.10
2018-01-18T09:31:34.190Z,4.40
2018-01-18T09:34:00.800Z,3.17
2018-01-18T09:36:27.470Z,2.77
2018-01-18T09:38:54.072Z,3.73
2018-01-18T09:41:21.386Z,5.30
2018-01-18T09:43:48.002Z,2.60
2018-01-18T09:46:14.580Z,3.97
2018-01-18T09:48:41.340Z,4.97
2018-01-18T09:51:08.079Z,3.33
2018-01-18T09:53:34.844Z,2.40
2018-01-18T09:56:01.494Z,4.10
2018-01-18T09:58:28.845Z,3.90
2018-01-18T10:00:55.509Z,3.17
2018-01-18T10:03:22.913Z,4.50
2018-01-18T10:05:49.632Z,5.00
2018-01-18T10:08:16.200Z,5.73
2018-01-18T10:10:42.817Z,3.50
2018-01-18T10:13:09.605Z,4.27
2018-01-18T10:15:36.670Z,6.50
2018-01-18T10:18:03.357Z,4.80
2018-01-18T10:20:30.008Z,4.57
2018-01-18T10:22:57.006Z,4.57
2018-01-18T10:25:23.670Z,3.30
2018-01-18T10:27:50.797Z,2.33
2018-01-18T10:30:17.474Z,3.27
2018-01-18T10:32:44.931Z,4.37
2018-01-18T10:35:12.465Z,4.33
2018-01-18T10:37:39.117Z,2.57
2018-01-18T10:40:05.941Z,4.50
2018-01-18T10:42:32.646Z,3.70
2018-01-18T10:44:59.452Z,2.63
2018-01-18T10:47:26.310Z,4.70
2018-01-18T10:49:53.113Z,4.77
2018-01-18T10:52:19.899Z,3.10
2018-01-18T10:54:46.716Z,6.97
2018-01-18T10:57:13.443Z,3.23
2018-01-18T10:59:40.373Z,3.17
2018-01-18T11:02:07.420Z,2.07
2018-01-18T11:04:35.234Z,3.03
2018-01-18T11:07:01.540Z,3.17
2018-01-18T11:09:28.200Z,4.00
2018-01-18T11:11:54.874Z,4.37
2018-01-18T11:14:21.650Z,3.53
2018-01-18T11:16:48.400Z,1.90
2018-01-18T11:19:15.481Z,3.47
2018-01-18T11:21:42.116Z,4.00
2018-01-18T11:24:08.912Z,2.20
2018-01-18T11:26:35.559Z,6.30
2018-01-18T11:29:02.209Z,3.63
2018-01-18T11:31:28.955Z,3.80
2018-01-18T11:33:55.881Z,7.77
2018-01-18T11:36:22.587Z,2.53
2018-01-18T11:38:49.629Z,4.07
2018-01-18T11:41:16.677Z,2.17
2018-01-18T11:43:43.721Z,3.23
2018-01-18T11:46:10.038Z,3.63
2018-01-18T11:48:36.584Z,3.20
2018-01-18T11:51:03.329Z,2.53
2018-01-18T11:53:30.089Z,2.20
2018-01-18T11:55:57.162Z,3.80
2018-01-18T11:58:23.661Z,2.07
2018-01-18T12:00:50.272Z,2.90
2018-01-18T12:03:16.912Z,1.50
2018-01-18T12:05:43.585Z,1.50
2018-01-18T12:08:10.283Z,3.17
2018-01-18T12:10:37.017Z,2.40
2018-01-18T12:13:04.096Z,3.93
2018-01-18T12:15:30.623Z,2.13
2018-01-18T12:17:58.036Z,2.43
2018-01-18T12:20:24.981Z,2.50
2018-01-18T12:22:51.552Z,3.20
2018-01-18T12:25:18.170Z,2.67
2018-01-18T12:27:44.812Z,1.27
2018-01-18T12:30:11.497Z,2.27
2018-01-18T12:32:38.888Z,2.80
2018-01-18T12:35:05.478Z,2.90
2018-01-18T12:37:32.075Z,1.60
2018-01-18T12:39:58.720Z,1.00
2018-01-18T12:42:25.318Z,2.90
2018-01-18T12:44:52.733Z,1.40
2018-01-18T12:47:19.365Z,1.63
2018-01-18T12:49:46.015Z,2.00
2018-01-18T12:52:12.664Z,2.10
2018-01-18T12:54:39.359Z,3.53
2018-01-18T12:57:06.901Z,1.93
2018-01-18T12:59:33.505Z,3.50
2018-01-18T13:02:00.174Z,3.07
2018-01-18T13:04:26.761Z,1.17
2018-01-18T13:06:53.831Z,3.53
2018-01-18T13:09:20.641Z,1.17
2018-01-18T13:11:47.260Z,2.53
2018-01-18T13:14:13.928Z,2.97
2018-01-18T13:16:40.567Z,2.50
2018-01-18T13:19:07.173Z,2.40
2018-01-18T13:21:33.812Z,1.50
2018-01-18T13:24:00.563Z,2.23
2018-01-18T13:26:27.155Z,2.50
2018-01-18T13:28:54.275Z,1.97
2018-01-18T13:31:20.873Z,2.27
2018-01-18T13:33:47.803Z,1.47
2018-01-18T13:36:15.271Z,2.00
2018-01-18T13:38:42.661Z,1.17
2018-01-18T13:41:09.267Z,2.00
2018-01-18T13:43:36.360Z,2.70
2018-01-18T13:46:03.293Z,1.20
2018-01-18T13:48:30.092Z,1.70
2018-01-18T13:50:57.275Z,2.30
2018-01-18T13:53:24.322Z,2.07
2018-01-18T13:55:51.539Z,1.00
2018-01-18T13:58:18.261Z,1.10
2018-01-18T14:00:45.238Z,4.00
2018-01-18T14:03:12.167Z,2.60
2018-01-18T14:05:38.760Z,1.57
2018-01-18T14:08:05.353Z,0.93
2018-01-18T14:10:32.433Z,2.90
2018-01-18T14:12:59.068Z,1.40
2018-01-18T14:15:25.707Z,1.30
2018-01-18T14:17:52.285Z,1.33
2018-01-18T14:20:19.106Z,1.47
2018-01-18T14:22:45.720Z,1.53
2018-01-18T14:25:12.291Z,1.10
2018-01-18T14:27:40.474Z,2.60
2018-01-18T14:30:07.182Z,5.50
2018-01-18T14:32:33.815Z,1.23
2018-01-18T14:35:00.372Z,2.27
2018-01-18T14:37:27.151Z,2.03
2018-01-18T14:39:53.798Z,1.17
2018-01-18T14:42:20.464Z,3.73
2018-01-18T14:44:47.087Z,3.73
2018-01-18T14:47:13.935Z,2.03
2018-01-18T14:49:40.686Z,1.10
2018-01-18T14:52:07.390Z,1.10
2018-01-18T14:54:34.153Z,2.57
2018-01-18T14:57:00.908Z,1.60
2018-01-18T14:59:27.611Z,1.80
2018-01-18T15:01:54.507Z,5.53
2018-01-18T15:04:21.249Z,1.97
2018-01-18T15:06:47.867Z,4.03
2018-01-18T15:09:14.640Z,4.10
2018-01-18T15:11:41.380Z,5.00
2018-01-18T15:14:07.954Z,2.60
2018-01-18T15:16:34.546Z,2.50
2018-01-18T15:19:01.348Z,2.80
2018-01-18T15:21:28.266Z,2.30
2018-01-18T15:23:54.992Z,3.67
2018-01-18T15:26:21.665Z,1.93
2018-01-18T15:28:48.425Z,1.53
2018-01-18T15:34:16.200Z,2.83
2018-01-18T15:36:45.009Z,1.80
2018-01-18T15:39:19.918Z,1.80
2018-01-18T15:41:52.699Z,4.23
2018-01-18T15:44:19.306Z,1.90
2018-01-18T15:46:46.692Z,2.90
2018-01-18T15:49:14.108Z,2.33
2018-01-18T15:51:40.850Z,1.87
2018-01-18T15:54:07.545Z,1.80
2018-01-18T15:56:34.164Z,1.30
2018-01-18T15:59:00.864Z,3.10
2018-01-18T16:01:28.265Z,1.83
2018-01-18T16:03:55.029Z,1.27
2018-01-18T16:06:21.634Z,2.10
2018-01-18T16:08:48.362Z,1.77
2018-01-18T16:11:15.817Z,2.80
2018-01-18T16:13:43.347Z,2.30
2018-01-18T16:21:46.644Z,1.70
2018-01-18T16:24:13.365Z,2.80
2018-01-18T16:26:40.187Z,3.73
2018-01-18T16:29:07.278Z,4.73
2018-01-18T16:31:34.772Z,2.50
2018-01-18T16:34:01.425Z,1.60
2018-01-18T16:36:28.181Z,2.37
2018-01-18T16:38:54.772Z,1.67
2018-01-18T16:41:21.449Z,1.53
2018-01-18T16:46:45.470Z,2.37
2018-01-18T16:49:12.895Z,1.67
2018-01-18T16:51:39.526Z,2.60
2018-01-18T16:54:06.165Z,2.23
2018-01-18T16:56:32.864Z,3.97
2018-01-18T16:59:00.897Z,3.07
2018-01-18T17:01:27.513Z,2.03
2018-01-18T17:03:54.196Z,2.90
2018-01-18T17:06:20.925Z,1.73
2018-01-18T17:08:47.529Z,3.10
2018-01-18T17:11:14.442Z,3.10
2018-01-18T17:13:41.104Z,2.60
2018-01-18T17:16:08.513Z,1.70
2018-01-18T17:18:35.080Z,2.23
2018-01-18T17:21:01.673Z,4.13
2018-01-18T17:23:28.264Z,1.60
2018-01-18T17:25:54.904Z,2.20
2018-01-18T17:28:21.501Z,1.63
2018-01-18T17:30:48.097Z,2.20
2018-01-18T17:33:14.840Z,1.50
2018-01-18T17:35:41.605Z,2.73
2018-01-18T17:38:08.249Z,1.87
2018-01-18T17:40:34.934Z,2.13
2018-01-18T17:43:01.603Z,1.60
2018-01-18T17:45:28.247Z,3.20
2018-01-18T17:47:55.010Z,1.20
2018-01-18T17:50:21.761Z,2.33
2018-01-18T17:52:48.592Z,1.83
2018-01-18T17:55:15.503Z,2.27
2018-01-18T17:57:42.192Z,3.63
2018-01-18T18:00:09.040Z,1.47
2018-01-18T18:02:35.815Z,2.33
2018-01-18T18:05:03.354Z,1.50
2018-01-18T18:07:30.475Z,2.30
2018-01-18T18:09:57.285Z,2.13
2018-01-18T18:12:25.025Z,2.03
2018-01-18T18:14:51.712Z,2.77
2018-01-18T18:17:18.414Z,1.57
2018-01-18T18:19:45.210Z,1.50
2018-01-18T18:22:12.083Z,5.50
